sensor_id;sensor_type;location;lat;lon;timestamp;pressure;altitude;pressure_sealevel;temperature;humidity
43741;BME280;29352;48.708;9.290;2023-07-20T00:01:21;97695.44;;;12.58;60.15
43741;BME280;29352;48.708;9.290;2023-07-20T00:03:47;97694.75;;;12.51;59.41
43741;BME280;29352;48.708;9.290;2023-07-20T00:06:20;97701.28;;;12.31;59.99
43741;BME280;29352;48.708;9.290;2023-07-20T00:08:46;97697.91;;;12.36;59.59
43741;BME280;29352;48.708;9.290;2023-07-20T00:11:11;97693.72;;;12.40;59.82
43741;BME280;29352;48.708;9.290;2023-07-20T00:13:38;97700.47;;;12.43;59.38
43741;BME280;29352;48.708;9.290;2023-07-20T00:16:05;97702.06;;;12.08;59.46
43741;BME280;29352;48.708;9.290;2023-07-20T00:18:30;97704.94;;;11.95;59.95
43741;BME280;29352;48.708;9.290;2023-07-20T00:20:56;97692.88;;;11.93;59.66
43741;BME280;29352;48.708;9.290;2023-07-20T00:23:21;97704.94;;;11.83;59.79
43741;BME280;29352;48.708;9.290;2023-07-20T00:25:48;97705.38;;;11.80;60.07
43741;BME280;29352;48.708;9.290;2023-07-20T00:28:13;97704.41;;;11.63;60.89
43741;BME280;29352;48.708;9.290;2023-07-20T00:30:40;97696.03;;;11.59;59.96
43741;BME280;29352;48.708;9.290;2023-07-20T00:33:11;97702.91;;;11.67;59.97
43741;BME280;29352;48.708;9.290;2023-07-20T00:35:38;97701.00;;;11.56;60.06
43741;BME280;29352;48.708;9.290;2023-07-20T00:38:04;97701.50;;;11.65;60.42
43741;BME280;29352;48.708;9.290;2023-07-20T00:40:40;97694.53;;;11.64;60.71
43741;BME280;29352;48.708;9.290;2023-07-20T00:43:06;97691.56;;;11.23;61.89
43741;BME280;29352;48.708;9.290;2023-07-20T00:45:33;97697.66;;;11.30;62.01
43741;BME280;29352;48.708;9.290;2023-07-20T00:48:01;97702.44;;;11.10;61.33
43741;BME280;29352;48.708;9.290;2023-07-20T00:50:28;97694.22;;;10.93;62.14
43741;BME280;29352;48.708;9.290;2023-07-20T00:52:55;97704.44;;;10.96;61.72
43741;BME280;29352;48.708;9.290;2023-07-20T00:55:23;97691.34;;;11.25;60.69
43741;BME280;29352;48.708;9.290;2023-07-20T00:57:51;97701.66;;;11.21;60.75
43741;BME280;29352;48.708;9.290;2023-07-20T01:00:16;97704.34;;;11.21;60.58
43741;BME280;29352;48.708;9.290;2023-07-20T01:02:42;97702.34;;;11.17;60.86
43741;BME280;29352;48.708;9.290;2023-07-20T01:05:08;97706.06;;;10.97;61.38
43741;BME280;29352;48.708;9.290;2023-07-20T01:07:51;97712.50;;;11.08;61.31
43741;BME280;29352;48.708;9.290;2023-07-20T01:10:43;97701.88;;;11.20;61.14
43741;BME280;29352;48.708;9.290;2023-07-20T01:13:14;97701.91;;;11.01;61.88
43741;BME280;29352;48.708;9.290;2023-07-20T01:15:39;97709.53;;;10.98;62.03
43741;BME280;29352;48.708;9.290;2023-07-20T01:18:05;97715.94;;;10.97;62.92
43741;BME280;29352;48.708;9.290;2023-07-20T01:20:32;97711.25;;;10.74;63.41
43741;BME280;29352;48.708;9.290;2023-07-20T01:26:59;97707.53;;;10.75;63.50
43741;BME280;29352;48.708;9.290;2023-07-20T01:32:23;97713.19;;;10.66;63.56
43741;BME280;29352;48.708;9.290;2023-07-20T01:34:52;97718.69;;;10.72;63.43
43741;BME280;29352;48.708;9.290;2023-07-20T01:37:22;97715.03;;;10.84;63.51
43741;BME280;29352;48.708;9.290;2023-07-20T01:39:53;97705.63;;;10.63;63.71
43741;BME280;29352;48.708;9.290;2023-07-20T01:42:23;97711.19;;;10.62;63.21
43741;BME280;29352;48.708;9.290;2023-07-20T01:44:53;97712.59;;;10.64;63.76
43741;BME280;29352;48.708;9.290;2023-07-20T01:47:19;97711.75;;;10.64;63.33
43741;BME280;29352;48.708;9.290;2023-07-20T01:49:45;97706.72;;;10.56;64.46
43741;BME280;29352;48.708;9.290;2023-07-20T01:52:10;97710.53;;;10.41;63.40
43741;BME280;29352;48.708;9.290;2023-07-20T01:54:36;97705.19;;;10.41;63.79
43741;BME280;29352;48.708;9.290;2023-07-20T01:57:01;97712.88;;;10.31;64.12
43741;BME280;29352;48.708;9.290;2023-07-20T01:59:27;97702.81;;;10.33;64.35
43741;BME280;29352;48.708;9.290;2023-07-20T02:01:53;97705.00;;;10.18;64.59
43741;BME280;29352;48.708;9.290;2023-07-20T02:04:18;97703.53;;;10.22;64.85
43741;BME280;29352;48.708;9.290;2023-07-20T02:06:43;97704.69;;;10.08;65.03
43741;BME280;29352;48.708;9.290;2023-07-20T02:09:09;97704.78;;;9.94;65.57
43741;BME280;29352;48.708;9.290;2023-07-20T02:11:34;97708.44;;;10.00;65.04
43741;BME280;29352;48.708;9.290;2023-07-20T02:14:00;97706.84;;;9.92;65.18
43741;BME280;29352;48.708;9.290;2023-07-20T02:16:26;97712.25;;;9.86;65.80
43741;BME280;29352;48.708;9.290;2023-07-20T02:18:52;97725.34;;;9.87;65.29
43741;BME280;29352;48.708;9.290;2023-07-20T02:21:18;97722.94;;;9.79;65.46
43741;BME280;29352;48.708;9.290;2023-07-20T02:23:43;97713.81;;;9.62;65.32
43741;BME280;29352;48.708;9.290;2023-07-20T02:26:09;97709.28;;;9.69;65.91
43741;BME280;29352;48.708;9.290;2023-07-20T02:28:34;97713.88;;;9.48;66.48
43741;BME280;29352;48.708;9.290;2023-07-20T02:30:59;97714.31;;;9.45;66.30
43741;BME280;29352;48.708;9.290;2023-07-20T02:33:25;97716.03;;;9.71;65.34
43741;BME280;29352;48.708;9.290;2023-07-20T02:35:51;97714.84;;;9.67;65.87
43741;BME280;29352;48.708;9.290;2023-07-20T02:38:17;97722.22;;;9.59;65.71
43741;BME280;29352;48.708;9.290;2023-07-20T02:40:43;97713.00;;;9.61;66.07
43741;BME280;29352;48.708;9.290;2023-07-20T02:43:08;97714.72;;;9.81;65.61
43741;BME280;29352;48.708;9.290;2023-07-20T02:45:35;97723.50;;;9.49;66.74
43741;BME280;29352;48.708;9.290;2023-07-20T02:48:00;97721.75;;;9.37;67.52
43741;BME280;29352;48.708;9.290;2023-07-20T02:50:26;97735.97;;;9.17;67.38
43741;BME280;29352;48.708;9.290;2023-07-20T02:52:51;97738.13;;;9.40;67.26
43741;BME280;29352;48.708;9.290;2023-07-20T02:55:17;97731.75;;;9.41;67.08
43741;BME280;29352;48.708;9.290;2023-07-20T02:57:42;97729.75;;;9.30;67.23
43741;BME280;29352;48.708;9.290;2023-07-20T03:00:08;97737.81;;;9.17;67.81
43741;BME280;29352;48.708;9.290;2023-07-20T03:02:34;97739.22;;;9.19;67.61
43741;BME280;29352;48.708;9.290;2023-07-20T03:05:00;97739.88;;;9.08;67.84
43741;BME280;29352;48.708;9.290;2023-07-20T03:07:27;97749.16;;;8.92;68.83
43741;BME280;29352;48.708;9.290;2023-07-20T03:09:53;97743.63;;;8.87;68.72
43741;BME280;29352;48.708;9.290;2023-07-20T03:12:20;97736.09;;;8.77;68.59
43741;BME280;29352;48.708;9.290;2023-07-20T03:14:46;97734.44;;;8.76;69.20
43741;BME280;29352;48.708;9.290;2023-07-20T03:17:12;97731.38;;;8.73;68.55
43741;BME280;29352;48.708;9.290;2023-07-20T03:19:37;97737.34;;;8.75;68.24
43741;BME280;29352;48.708;9.290;2023-07-20T03:22:03;97730.72;;;8.84;68.60
43741;BME280;29352;48.708;9.290;2023-07-20T03:24:28;97731.78;;;8.83;69.44
43741;BME280;29352;48.708;9.290;2023-07-20T03:26:54;97744.91;;;8.78;69.52
43741;BME280;29352;48.708;9.290;2023-07-20T03:29:19;97738.16;;;8.75;69.07
43741;BME280;29352;48.708;9.290;2023-07-20T03:31:45;97742.03;;;8.73;69.20
43741;BME280;29352;48.708;9.290;2023-07-20T03:34:10;97743.47;;;8.56;70.35
43741;BME280;29352;48.708;9.290;2023-07-20T03:36:35;97749.59;;;8.49;70.94
43741;BME280;29352;48.708;9.290;2023-07-20T03:39:01;97759.47;;;8.29;71.50
43741;BME280;29352;48.708;9.290;2023-07-20T03:41:28;97758.22;;;8.18;71.64
43741;BME280;29352;48.708;9.290;2023-07-20T03:43:53;97754.16;;;8.16;72.04
43741;BME280;29352;48.708;9.290;2023-07-20T03:46:19;97750.66;;;8.22;71.61
43741;BME280;29352;48.708;9.290;2023-07-20T03:48:44;97752.91;;;8.25;70.78
43741;BME280;29352;48.708;9.290;2023-07-20T03:51:10;97754.13;;;8.36;70.15
43741;BME280;29352;48.708;9.290;2023-07-20T03:53:35;97758.22;;;8.45;70.11
43741;BME280;29352;48.708;9.290;2023-07-20T03:56:01;97760.47;;;8.48;69.54
43741;BME280;29352;48.708;9.290;2023-07-20T03:58:26;97751.66;;;8.61;69.63
43741;BME280;29352;48.708;9.290;2023-07-20T04:00:52;97758.34;;;8.96;69.21
43741;BME280;29352;48.708;9.290;2023-07-20T04:03:18;97758.94;;;9.05;68.39
43741;BME280;29352;48.708;9.290;2023-07-20T04:05:45;97752.56;;;9.64;66.72
43741;BME280;29352;48.708;9.290;2023-07-20T04:08:11;97763.41;;;9.94;65.90
43741;BME280;29352;48.708;9.290;2023-07-20T04:10:37;97753.00;;;10.18;64.69
43741;BME280;29352;48.708;9.290;2023-07-20T04:13:04;97763.31;;;10.64;63.84
43741;BME280;29352;48.708;9.290;2023-07-20T04:15:30;97758.81;;;11.20;62.77
43741;BME280;29352;48.708;9.290;2023-07-20T04:17:56;97761.13;;;11.65;63.60
43741;BME280;29352;48.708;9.290;2023-07-20T04:20:23;97766.94;;;11.62;61.87
43741;BME280;29352;48.708;9.290;2023-07-20T04:22:49;97761.78;;;12.21;60.93
43741;BME280;29352;48.708;9.290;2023-07-20T04:25:15;97760.50;;;12.47;60.89
43741;BME280;29352;48.708;9.290;2023-07-20T04:27:41;97766.13;;;12.03;62.51
43741;BME280;29352;48.708;9.290;2023-07-20T04:30:08;97765.03;;;12.46;62.53
43741;BME280;29352;48.708;9.290;2023-07-20T04:32:34;97758.91;;;13.33;59.67
43741;BME280;29352;48.708;9.290;2023-07-20T04:34:59;97759.44;;;13.87;58.00
43741;BME280;29352;48.708;9.290;2023-07-20T04:37:25;97757.72;;;13.98;58.84
43741;BME280;29352;48.708;9.290;2023-07-20T04:39:50;97759.63;;;14.48;56.84
43741;BME280;29352;48.708;9.290;2023-07-20T04:42:16;97760.56;;;14.76;57.02
43741;BME280;29352;48.708;9.290;2023-07-20T04:44:41;97756.09;;;15.20;54.87
43741;BME280;29352;48.708;9.290;2023-07-20T04:47:07;97758.19;;;15.62;55.77
43741;BME280;29352;48.708;9.290;2023-07-20T04:49:33;97756.56;;;15.61;55.02
43741;BME280;29352;48.708;9.290;2023-07-20T04:51:59;97751.41;;;16.08;54.28
43741;BME280;29352;48.708;9.290;2023-07-20T04:54:25;97755.72;;;15.33;54.58
43741;BME280;29352;48.708;9.290;2023-07-20T04:56:52;97757.88;;;15.14;54.36
43741;BME280;29352;48.708;9.290;2023-07-20T04:59:18;97755.78;;;15.17;55.26
43741;BME280;29352;48.708;9.290;2023-07-20T05:01:44;97761.19;;;14.44;57.68
43741;BME280;29352;48.708;9.290;2023-07-20T05:04:10;97761.78;;;14.17;57.22
43741;BME280;29352;48.708;9.290;2023-07-20T05:06:36;97774.06;;;13.80;57.37
43741;BME280;29352;48.708;9.290;2023-07-20T05:09:01;97773.34;;;13.72;58.92
43741;BME280;29352;48.708;9.290;2023-07-20T05:11:26;97774.09;;;13.56;60.24
43741;BME280;29352;48.708;9.290;2023-07-20T05:13:52;97772.81;;;13.18;60.72
43741;BME280;29352;48.708;9.290;2023-07-20T05:16:17;97770.22;;;13.23;59.70
43741;BME280;29352;48.708;9.290;2023-07-20T05:18:43;97765.09;;;13.34;59.05
43741;BME280;29352;48.708;9.290;2023-07-20T05:21:08;97759.13;;;12.79;60.21
43741;BME280;29352;48.708;9.290;2023-07-20T05:23:34;97767.22;;;13.20;60.70
43741;BME280;29352;48.708;9.290;2023-07-20T05:25:59;97760.31;;;13.36;59.90
43741;BME280;29352;48.708;9.290;2023-07-20T05:28:26;97760.53;;;12.59;61.46
43741;BME280;29352;48.708;9.290;2023-07-20T05:30:52;97771.28;;;12.17;63.63
43741;BME280;29352;48.708;9.290;2023-07-20T05:33:19;97768.41;;;12.89;62.34
43741;BME280;29352;48.708;9.290;2023-07-20T05:35:45;97766.56;;;12.42;61.81
43741;BME280;29352;48.708;9.290;2023-07-20T05:38:10;97757.00;;;12.58;63.17
43741;BME280;29352;48.708;9.290;2023-07-20T05:40:44;97756.28;;;13.21;60.80
43741;BME280;29352;48.708;9.290;2023-07-20T05:43:10;97757.16;;;13.39;61.49
43741;BME280;29352;48.708;9.290;2023-07-20T05:45:36;97756.00;;;13.92;58.78
43741;BME280;29352;48.708;9.290;2023-07-20T05:48:02;97765.94;;;13.91;59.89
43741;BME280;29352;48.708;9.290;2023-07-20T05:50:28;97762.50;;;13.96;59.93
43741;BME280;29352;48.708;9.290;2023-07-20T05:52:54;97758.94;;;14.07;59.06
43741;BME280;29352;48.708;9.290;2023-07-20T05:55:19;97765.97;;;14.08;59.21
43741;BME280;29352;48.708;9.290;2023-07-20T05:57:45;97770.59;;;13.67;59.26
43741;BME280;29352;48.708;9.290;2023-07-20T06:00:12;97766.59;;;13.99;58.56
43741;BME280;29352;48.708;9.290;2023-07-20T06:02:38;97761.06;;;14.05;58.75
43741;BME280;29352;48.708;9.290;2023-07-20T06:05:05;97759.69;;;14.19;58.36
43741;BME280;29352;48.708;9.290;2023-07-20T06:07:34;97767.75;;;14.19;57.93
43741;BME280;29352;48.708;9.290;2023-07-20T06:10:01;97766.03;;;14.30;57.35
43741;BME280;29352;48.708;9.290;2023-07-20T06:12:27;97758.81;;;14.64;56.69
43741;BME280;29352;48.708;9.290;2023-07-20T06:14:53;97767.94;;;14.47;57.57
43741;BME280;29352;48.708;9.290;2023-07-20T06:17:18;97773.78;;;14.77;56.93
43741;BME280;29352;48.708;9.290;2023-07-20T06:19:44;97773.97;;;14.92;57.38
43741;BME280;29352;48.708;9.290;2023-07-20T06:22:09;97772.50;;;15.02;56.51
43741;BME280;29352;48.708;9.290;2023-07-20T06:24:35;97767.09;;;15.41;56.20
43741;BME280;29352;48.708;9.290;2023-07-20T06:27:00;97763.59;;;15.40;56.21
43741;BME280;29352;48.708;9.290;2023-07-20T06:29:25;97768.16;;;15.18;57.03
43741;BME280;29352;48.708;9.290;2023-07-20T06:31:51;97770.91;;;15.45;55.92
43741;BME280;29352;48.708;9.290;2023-07-20T06:34:16;97768.16;;;15.67;56.11
43741;BME280;29352;48.708;9.290;2023-07-20T06:36:42;97763.47;;;15.79;55.14
43741;BME280;29352;48.708;9.290;2023-07-20T06:39:07;97762.34;;;15.75;54.47
43741;BME280;29352;48.708;9.290;2023-07-20T06:41:33;97753.22;;;15.76;54.07
43741;BME280;29352;48.708;9.290;2023-07-20T06:43:58;97753.13;;;15.93;54.07
43741;BME280;29352;48.708;9.290;2023-07-20T06:46:25;97753.94;;;16.25;53.39
43741;BME280;29352;48.708;9.290;2023-07-20T06:48:51;97753.41;;;16.23;52.42
43741;BME280;29352;48.708;9.290;2023-07-20T06:51:16;97757.47;;;16.26;53.45
43741;BME280;29352;48.708;9.290;2023-07-20T06:53:43;97757.31;;;16.43;53.16
43741;BME280;29352;48.708;9.290;2023-07-20T06:56:08;97758.66;;;16.77;53.07
43741;BME280;29352;48.708;9.290;2023-07-20T06:58:34;97753.81;;;16.74;52.72
43741;BME280;29352;48.708;9.290;2023-07-20T07:01:04;97762.81;;;17.00;52.77
43741;BME280;29352;48.708;9.290;2023-07-20T07:03:33;97763.53;;;17.28;51.79
43741;BME280;29352;48.708;9.290;2023-07-20T07:05:59;97760.53;;;17.19;51.88
43741;BME280;29352;48.708;9.290;2023-07-20T07:08:24;97755.44;;;17.23;52.16
43741;BME280;29352;48.708;9.290;2023-07-20T07:10:50;97755.78;;;17.52;51.77
43741;BME280;29352;48.708;9.290;2023-07-20T07:13:15;97758.81;;;17.03;52.42
43741;BME280;29352;48.708;9.290;2023-07-20T07:15:42;97758.16;;;17.38;51.85
43741;BME280;29352;48.708;9.290;2023-07-20T07:18:08;97757.47;;;17.11;52.03
43741;BME280;29352;48.708;9.290;2023-07-20T07:20:33;97752.50;;;17.35;52.17
43741;BME280;29352;48.708;9.290;2023-07-20T07:22:59;97756.28;;;16.91;52.26
43741;BME280;29352;48.708;9.290;2023-07-20T07:25:25;97742.81;;;17.44;52.03
43741;BME280;29352;48.708;9.290;2023-07-20T07:27:52;97751.59;;;17.92;50.93
43741;BME280;29352;48.708;9.290;2023-07-20T07:30:19;97748.09;;;18.37;49.66
43741;BME280;29352;48.708;9.290;2023-07-20T07:32:45;97733.47;;;19.44;49.17
43741;BME280;29352;48.708;9.290;2023-07-20T07:35:11;97738.13;;;20.56;47.17
43741;BME280;29352;48.708;9.290;2023-07-20T07:37:36;97740.81;;;21.34;46.17
43741;BME280;29352;48.708;9.290;2023-07-20T07:40:03;97728.75;;;22.81;44.46
43741;BME280;29352;48.708;9.290;2023-07-20T07:42:31;97733.69;;;23.34;42.86
43741;BME280;29352;48.708;9.290;2023-07-20T07:44:56;97734.09;;;22.39;43.84
43741;BME280;29352;48.708;9.290;2023-07-20T07:47:22;97726.38;;;23.93;42.73
43741;BME280;29352;48.708;9.290;2023-07-20T07:49:47;97731.09;;;23.29;43.31
43741;BME280;29352;48.708;9.290;2023-07-20T07:52:12;97728.28;;;20.90;45.97
43741;BME280;29352;48.708;9.290;2023-07-20T07:54:39;97727.84;;;22.85;43.83
43741;BME280;29352;48.708;9.290;2023-07-20T07:57:05;97725.53;;;23.34;43.32
43741;BME280;29352;48.708;9.290;2023-07-20T07:59:31;97723.78;;;24.02;42.50
43741;BME280;29352;48.708;9.290;2023-07-20T08:02:01;97725.72;;;24.95;41.37
43741;BME280;29352;48.708;9.290;2023-07-20T08:04:27;97724.06;;;25.16;40.63
43741;BME280;29352;48.708;9.290;2023-07-20T08:06:53;97717.09;;;25.93;39.83
43741;BME280;29352;48.708;9.290;2023-07-20T08:09:18;97721.69;;;26.54;39.54
43741;BME280;29352;48.708;9.290;2023-07-20T08:11:44;97721.56;;;26.24;39.36
43741;BME280;29352;48.708;9.290;2023-07-20T08:14:09;97724.00;;;26.00;39.29
43741;BME280;29352;48.708;9.290;2023-07-20T08:16:34;97711.50;;;27.10;38.52
43741;BME280;29352;48.708;9.290;2023-07-20T08:19:00;97709.41;;;26.69;39.13
43741;BME280;29352;48.708;9.290;2023-07-20T08:21:25;97702.25;;;24.85;39.81
43741;BME280;29352;48.708;9.290;2023-07-20T08:23:51;97707.31;;;24.61;40.80
43741;BME280;29352;48.708;9.290;2023-07-20T08:26:16;97712.91;;;23.38;42.73
43741;BME280;29352;48.708;9.290;2023-07-20T08:28:44;97704.25;;;24.62;41.60
43741;BME280;29352;48.708;9.290;2023-07-20T08:31:10;97702.19;;;25.08;40.04
43741;BME280;29352;48.708;9.290;2023-07-20T08:33:36;97702.72;;;24.47;40.83
43741;BME280;29352;48.708;9.290;2023-07-20T08:36:01;97703.84;;;23.79;40.94
43741;BME280;29352;48.708;9.290;2023-07-20T08:38:28;97703.38;;;22.99;41.38
43741;BME280;29352;48.708;9.290;2023-07-20T08:40:54;97696.28;;;23.76;41.64
43741;BME280;29352;48.708;9.290;2023-07-20T08:43:22;97705.44;;;22.47;42.94
43741;BME280;29352;48.708;9.290;2023-07-20T08:45:54;97708.31;;;22.37;43.01
43741;BME280;29352;48.708;9.290;2023-07-20T08:48:21;97716.72;;;21.70;43.21
43741;BME280;29352;48.708;9.290;2023-07-20T08:50:51;97707.66;;;20.94;43.24
43741;BME280;29352;48.708;9.290;2023-07-20T08:53:21;97702.19;;;21.42;42.77
43741;BME280;29352;48.708;9.290;2023-07-20T08:55:50;97697.84;;;20.98;43.87
43741;BME280;29352;48.708;9.290;2023-07-20T08:58:18;97708.81;;;19.51;45.07
43741;BME280;29352;48.708;9.290;2023-07-20T09:00:44;97701.63;;;20.73;44.88
43741;BME280;29352;48.708;9.290;2023-07-20T09:03:11;97694.22;;;22.35;43.30
43741;BME280;29352;48.708;9.290;2023-07-20T09:05:36;97680.75;;;23.40;41.50
43741;BME280;29352;48.708;9.290;2023-07-20T09:08:04;97690.88;;;22.84;42.26
43741;BME280;29352;48.708;9.290;2023-07-20T09:10:30;97700.47;;;21.84;42.10
43741;BME280;29352;48.708;9.290;2023-07-20T09:12:55;97697.66;;;22.40;41.65
43741;BME280;29352;48.708;9.290;2023-07-20T09:15:22;97687.44;;;22.79;41.12
43741;BME280;29352;48.708;9.290;2023-07-20T09:17:50;97692.28;;;22.68;41.71
43741;BME280;29352;48.708;9.290;2023-07-20T09:20:18;97686.63;;;23.70;40.38
43741;BME280;29352;48.708;9.290;2023-07-20T09:22:44;97680.19;;;24.02;40.22
43741;BME280;29352;48.708;9.290;2023-07-20T09:25:14;97682.63;;;25.14;39.53
43741;BME280;29352;48.708;9.290;2023-07-20T09:27:44;97687.13;;;23.72;40.42
43741;BME280;29352;48.708;9.290;2023-07-20T09:30:12;97674.41;;;24.03;40.44
43741;BME280;29352;48.708;9.290;2023-07-20T09:32:42;97677.50;;;23.52;41.02
43741;BME280;29352;48.708;9.290;2023-07-20T09:35:19;97684.03;;;23.87;40.69
43741;BME280;29352;48.708;9.290;2023-07-20T09:37:59;97689.44;;;22.87;41.08
43741;BME280;29352;48.708;9.290;2023-07-20T09:40:27;97698.31;;;22.18;41.29
43741;BME280;29352;48.708;9.290;2023-07-20T09:42:54;97691.22;;;21.85;41.92
43741;BME280;29352;48.708;9.290;2023-07-20T09:45:30;97687.56;;;22.87;40.60
43741;BME280;29352;48.708;9.290;2023-07-20T09:48:05;97687.13;;;23.22;41.03
43741;BME280;29352;48.708;9.290;2023-07-20T09:50:32;97677.69;;;23.55;40.62
43741;BME280;29352;48.708;9.290;2023-07-20T09:53:00;97671.81;;;24.52;39.32
43741;BME280;29352;48.708;9.290;2023-07-20T09:55:28;97664.22;;;22.40;41.70
43741;BME280;29352;48.708;9.290;2023-07-20T09:57:56;97676.66;;;22.46;41.71
43741;BME280;29352;48.708;9.290;2023-07-20T10:00:21;97681.19;;;21.66;42.63
43741;BME280;29352;48.708;9.290;2023-07-20T10:02:51;97686.97;;;21.79;42.18
43741;BME280;29352;48.708;9.290;2023-07-20T10:05:18;97687.53;;;21.19;42.97
43741;BME280;29352;48.708;9.290;2023-07-20T10:07:49;97675.97;;;20.36;44.29
43741;BME280;29352;48.708;9.290;2023-07-20T10:10:18;97681.00;;;20.48;44.17
43741;BME280;29352;48.708;9.290;2023-07-20T10:12:48;97671.03;;;20.14;44.63
43741;BME280;29352;48.708;9.290;2023-07-20T10:15:23;97674.75;;;21.43;43.66
43741;BME280;29352;48.708;9.290;2023-07-20T10:18:09;97664.56;;;22.80;41.38
43741;BME280;29352;48.708;9.290;2023-07-20T10:20:40;97656.22;;;22.76;41.81
43741;BME280;29352;48.708;9.290;2023-07-20T10:23:07;97646.97;;;22.63;41.83
43741;BME280;29352;48.708;9.290;2023-07-20T10:25:34;97655.97;;;23.87;40.76
43741;BME280;29352;48.708;9.290;2023-07-20T10:28:07;97651.69;;;23.94;39.83
43741;BME280;29352;48.708;9.290;2023-07-20T10:30:34;97653.50;;;23.54;39.34
43741;BME280;29352;48.708;9.290;2023-07-20T10:33:04;97650.84;;;23.85;38.93
43741;BME280;29352;48.708;9.290;2023-07-20T10:35:50;97642.97;;;23.83;38.21
43741;BME280;29352;48.708;9.290;2023-07-20T10:38:38;97631.72;;;23.54;38.92
43741;BME280;29352;48.708;9.290;2023-07-20T10:41:16;97627.56;;;23.79;39.35
43741;BME280;29352;48.708;9.290;2023-07-20T10:43:45;97635.47;;;23.44;39.79
43741;BME280;29352;48.708;9.290;2023-07-20T10:46:12;97626.66;;;24.06;39.47
43741;BME280;29352;48.708;9.290;2023-07-20T10:49:01;97627.69;;;23.96;39.04
43741;BME280;29352;48.708;9.290;2023-07-20T10:51:29;97615.91;;;24.89;38.90
43741;BME280;29352;48.708;9.290;2023-07-20T10:53:56;97620.97;;;22.85;40.33
43741;BME280;29352;48.708;9.290;2023-07-20T10:56:26;97626.56;;;22.19;41.30
43741;BME280;29352;48.708;9.290;2023-07-20T10:59:00;97630.38;;;21.53;41.66
43741;BME280;29352;48.708;9.290;2023-07-20T11:01:30;97638.66;;;21.43;41.55
43741;BME280;29352;48.708;9.290;2023-07-20T11:04:01;97623.69;;;22.43;41.37
43741;BME280;29352;48.708;9.290;2023-07-20T11:06:33;97617.84;;;23.28;40.09
43741;BME280;29352;48.708;9.290;2023-07-20T11:09:10;97621.31;;;23.56;39.46
43741;BME280;29352;48.708;9.290;2023-07-20T11:11:38;97615.94;;;23.65;39.36
43741;BME280;29352;48.708;9.290;2023-07-20T11:19:20;97613.44;;;23.77;39.87
43741;BME280;29352;48.708;9.290;2023-07-20T11:21:58;97603.19;;;24.27;39.31
43741;BME280;29352;48.708;9.290;2023-07-20T11:24:24;97608.84;;;22.22;41.04
43741;BME280;29352;48.708;9.290;2023-07-20T11:26:51;97620.28;;;21.16;41.81
43741;BME280;29352;48.708;9.290;2023-07-20T11:29:20;97619.50;;;21.34;41.04
43741;BME280;29352;48.708;9.290;2023-07-20T11:31:48;97619.19;;;21.55;41.70
43741;BME280;29352;48.708;9.290;2023-07-20T11:34:16;97602.06;;;21.92;41.55
43741;BME280;29352;48.708;9.290;2023-07-20T11:36:48;97597.59;;;22.84;40.52
43741;BME280;29352;48.708;9.290;2023-07-20T11:39:16;97600.94;;;23.76;39.17
43741;BME280;29352;48.708;9.290;2023-07-20T11:41:49;97601.31;;;22.88;40.01
43741;BME280;29352;48.708;9.290;2023-07-20T11:44:16;97596.75;;;22.83;39.94
43741;BME280;29352;48.708;9.290;2023-07-20T11:46:44;97603.63;;;23.67;39.26
43741;BME280;29352;48.708;9.290;2023-07-20T11:49:10;97587.06;;;23.86;37.25
43741;BME280;29352;48.708;9.290;2023-07-20T11:51:39;97584.56;;;24.21;36.92
43741;BME280;29352;48.708;9.290;2023-07-20T11:54:08;97576.53;;;24.55;37.09
43741;BME280;29352;48.708;9.290;2023-07-20T11:56:35;97576.94;;;24.40;37.09
43741;BME280;29352;48.708;9.290;2023-07-20T11:59:01;97574.16;;;24.31;37.54
43741;BME280;29352;48.708;9.290;2023-07-20T12:01:29;97580.06;;;24.25;38.35
43741;BME280;29352;48.708;9.290;2023-07-20T12:03:59;97574.84;;;23.52;38.44
43741;BME280;29352;48.708;9.290;2023-07-20T12:06:25;97575.09;;;23.06;38.81
43741;BME280;29352;48.708;9.290;2023-07-20T12:08:57;97576.19;;;23.19;38.12
43741;BME280;29352;48.708;9.290;2023-07-20T12:11:37;97571.25;;;23.66;38.79
43741;BME280;29352;48.708;9.290;2023-07-20T12:14:07;97566.44;;;23.94;36.88
43741;BME280;29352;48.708;9.290;2023-07-20T12:16:36;97570.97;;;22.95;38.77
43741;BME280;29352;48.708;9.290;2023-07-20T12:21:35;97570.22;;;23.39;37.66
43741;BME280;29352;48.708;9.290;2023-07-20T12:24:04;97562.84;;;24.07;37.38
43741;BME280;29352;48.708;9.290;2023-07-20T12:26:31;97553.13;;;23.92;37.92
43741;BME280;29352;48.708;9.290;2023-07-20T12:28:58;97552.56;;;23.50;37.88
43741;BME280;29352;48.708;9.290;2023-07-20T12:31:26;97552.63;;;23.00;37.93
43741;BME280;29352;48.708;9.290;2023-07-20T12:33:54;97548.25;;;22.49;38.65
43741;BME280;29352;48.708;9.290;2023-07-20T12:36:23;97551.03;;;22.85;39.46
43741;BME280;29352;48.708;9.290;2023-07-20T12:38:49;97544.41;;;22.78;38.70
43741;BME280;29352;48.708;9.290;2023-07-20T12:41:15;97545.41;;;23.18;38.92
43741;BME280;29352;48.708;9.290;2023-07-20T12:43:42;97539.91;;;23.32;39.10
43741;BME280;29352;48.708;9.290;2023-07-20T12:46:08;97533.81;;;23.71;37.98
43741;BME280;29352;48.708;9.290;2023-07-20T12:48:36;97530.84;;;23.59;38.28
43741;BME280;29352;48.708;9.290;2023-07-20T12:51:06;97538.06;;;23.41;37.05
43741;BME280;29352;48.708;9.290;2023-07-20T12:53:33;97535.97;;;23.38;38.63
43741;BME280;29352;48.708;9.290;2023-07-20T12:56:00;97527.63;;;23.57;38.66
43741;BME280;29352;48.708;9.290;2023-07-20T12:58:26;97526.63;;;23.53;38.09
43741;BME280;29352;48.708;9.290;2023-07-20T13:00:52;97520.31;;;22.99;38.26
43741;BME280;29352;48.708;9.290;2023-07-20T13:03:17;97526.44;;;23.72;36.55
43741;BME280;29352;48.708;9.290;2023-07-20T13:05:45;97530.66;;;23.55;36.85
43741;BME280;29352;48.708;9.290;2023-07-20T13:08:11;97523.91;;;22.94;37.17
43741;BME280;29352;48.708;9.290;2023-07-20T13:10:38;97520.31;;;22.85;36.65
43741;BME280;29352;48.708;9.290;2023-07-20T13:13:07;97512.63;;;23.01;36.82
43741;BME280;29352;48.708;9.290;2023-07-20T13:15:41;97516.09;;;22.79;36.63
43741;BME280;29352;48.708;9.290;2023-07-20T13:18:08;97512.00;;;22.67;37.20